Portal, Georgia
Current Conditions -  °F | °C
As of 12:15 PM on Thursday 30 Oct 2014 (Local Time) from KTBR Reporting Station
Clear Clear  
Wind Chill: 67°   Ceiling: Unl
Heat Index: 67°   Visibility: 10mi
Dew Point: 54°   Wind: 3mph
Humidity: 61%   Direction: 80°E
Pressure: 30.01"   Gusts: NA
Location:  32.54°N, 81.93°W
Report Text: KTBR 301615Z AUTO 08003KT 10SM CLR 20/12 A3001 RMK AO2 T01970120
Loading
Personal Weather Stations






























Interactive Weather Map
Tropical Storm Tracking
New forecast layout! Learn more

10-Day Weather Forecast

Advertisements
Track Severe Weather on mobile